Airfield :
LOGIN :

Register | Disclaimer

   EN    FR    IT 

 










Legend :    VFR   Marginal VFR   IFR   Intensive IFR   Very Intensive IFR
Visi :
Ceiling :
>= 8 km
>= 3000ft
5 to 8 km
1000 to 3000 ft
1500m to 5 km
500 to 1000 ft
800 to 1500m
200 to 500 ft
< 800m
< 200 ft
Symbols :   Thunderstorms  Fog  Heavy snow  Heavy precipitations  Wind > 20 kt
SIGMETs :     Misc.  Thunderstorms  Icing  Turbulence  Mountain Waves  Volcanic Ashes






- Airport Elevation : 645 ft
- IATA code : DLE


LFGJ - Dole Tavaux

CURRENT METAR :
  • 130930Z AUTO 25015KT 9999 -RA FEW024/// BKN038/// BKN046/// ///TCU 07/04 Q0988 TEMPO 4000 SHRA BECMG 25015G28KT

EXPIRED METARs :
  • 130900Z AUTO 23011KT CAVOK 07/04 Q0987 TEMPO 4000 SHRA FEW030TCU BECMG 25015G28KT
  • 130830Z AUTO 25016KT 9999 FEW018/// BKN027/// BKN035/// ///TCU 07/04 Q0987 TEMPO 4000 SHRA BECMG 25015G28KT
  • 130800Z AUTO 21013KT 9999 FEW013/// BKN028/// BKN034/// ///TCU 06/05 Q0986 TEMPO 26015G25KT 4000 SHRA BKN025
  • 130730Z AUTO 21015KT 9999 FEW032 BKN038 BKN062 06/05 Q0985 TEMPO 26015G25KT 4000 SHRA BKN015TCU
  • 130700Z AUTO 22017KT 9999 BKN033 BKN042 OVC100 07/05 Q0984 NOSIG

TAF TAF LFGJ
Valid from the 13 at 09:00 until the 13 at 18:00 UTC


130800Z 1309/1318 25015G28KT 9999 SCT035
TEMPO 1309/1318 -SHRA
PROB40
TEMPO 1309/1315 4000 SHRA FEW030TCU
BECMG 1316/1318 22012KT



MET'MAP, your aeronautical weather chart ! - Copyright ORBIFLY December 2007 - Disclaimer

ORBIFLY MET'MAP TEAM :

Programming & Development : Alexandra Zaïnal
Concept & original design : Baudouin d'Aumeries
Assistance for programming : Marc-Olivier Méhu
Technical & hardware support : Manuel Goepfert

Contact : metmap@orbifly.com




SOURCES & CREDITS :

   NOAA